sensor_id;sensor_type;location;lat;lon;timestamp;pressure;altitude;pressure_sealevel;temperature;humidity
71966;BME280;59836;52.132;5.442;2023-04-04T00:00:33;103148.66;;;3.13;67.59
71966;BME280;59836;52.132;5.442;2023-04-04T00:02:59;103145.97;;;3.13;68.02
71966;BME280;59836;52.132;5.442;2023-04-04T00:05:26;103139.63;;;3.14;68.22
71966;BME280;59836;52.132;5.442;2023-04-04T00:07:53;103144.63;;;3.09;67.88
71966;BME280;59836;52.132;5.442;2023-04-04T00:10:19;103135.91;;;3.07;68.17
71966;BME280;59836;52.132;5.442;2023-04-04T00:12:46;103134.22;;;3.06;68.39
71966;BME280;59836;52.132;5.442;2023-04-04T00:15:12;103134.56;;;3.03;68.38
71966;BME280;59836;52.132;5.442;2023-04-04T00:17:38;103127.50;;;3.02;68.59
71966;BME280;59836;52.132;5.442;2023-04-04T00:20:05;103125.00;;;3.00;69.13
71966;BME280;59836;52.132;5.442;2023-04-04T00:22:32;103122.78;;;2.95;69.27
71966;BME280;59836;52.132;5.442;2023-04-04T00:24:59;103118.94;;;2.90;69.07
71966;BME280;59836;52.132;5.442;2023-04-04T00:27:25;103115.03;;;2.84;69.25
71966;BME280;59836;52.132;5.442;2023-04-04T00:29:52;103118.72;;;2.83;69.89
71966;BME280;59836;52.132;5.442;2023-04-04T00:32:18;103114.53;;;2.80;69.92
71966;BME280;59836;52.132;5.442;2023-04-04T00:34:45;103111.19;;;2.78;70.02
71966;BME280;59836;52.132;5.442;2023-04-04T00:37:11;103105.59;;;2.72;70.40
71966;BME280;59836;52.132;5.442;2023-04-04T00:39:39;103110.28;;;2.70;70.12
71966;BME280;59836;52.132;5.442;2023-04-04T00:42:06;103111.59;;;2.65;70.47
71966;BME280;59836;52.132;5.442;2023-04-04T00:44:32;103120.66;;;2.64;70.81
71966;BME280;59836;52.132;5.442;2023-04-04T00:47:03;103122.00;;;2.60;70.93
71966;BME280;59836;52.132;5.442;2023-04-04T00:49:29;103117.09;;;2.56;71.33
71966;BME280;59836;52.132;5.442;2023-04-04T00:51:56;103112.38;;;2.49;71.29
71966;BME280;59836;52.132;5.442;2023-04-04T00:54:23;103111.84;;;2.46;71.30
71966;BME280;59836;52.132;5.442;2023-04-04T00:56:49;103113.53;;;2.47;71.38
71966;BME280;59836;52.132;5.442;2023-04-04T00:59:25;103103.97;;;2.44;71.78
71966;BME280;59836;52.132;5.442;2023-04-04T01:01:53;103104.16;;;2.43;72.19
71966;BME280;59836;52.132;5.442;2023-04-04T01:04:19;103107.13;;;2.40;72.59
71966;BME280;59836;52.132;5.442;2023-04-04T01:06:46;103104.59;;;2.38;72.53
71966;BME280;59836;52.132;5.442;2023-04-04T01:09:14;103113.63;;;2.37;72.46
71966;BME280;59836;52.132;5.442;2023-04-04T01:11:41;103116.63;;;2.34;72.37
71966;BME280;59836;52.132;5.442;2023-04-04T01:14:08;103123.28;;;2.30;72.67
71966;BME280;59836;52.132;5.442;2023-04-04T01:16:34;103115.75;;;2.25;72.77
71966;BME280;59836;52.132;5.442;2023-04-04T01:19:02;103115.75;;;2.25;73.11
71966;BME280;59836;52.132;5.442;2023-04-04T01:21:31;103106.19;;;2.22;73.30
71966;BME280;59836;52.132;5.442;2023-04-04T01:24:00;103108.66;;;2.16;73.04
71966;BME280;59836;52.132;5.442;2023-04-04T01:26:27;103106.28;;;2.13;73.66
71966;BME280;59836;52.132;5.442;2023-04-04T01:28:54;103103.63;;;2.13;73.89
71966;BME280;59836;52.132;5.442;2023-04-04T01:31:27;103112.47;;;2.13;73.77
71966;BME280;59836;52.132;5.442;2023-04-04T01:37:05;103113.63;;;2.11;74.30
71966;BME280;59836;52.132;5.442;2023-04-04T01:39:42;103113.25;;;2.05;74.68
71966;BME280;59836;52.132;5.442;2023-04-04T01:42:13;103109.22;;;2.01;74.53
71966;BME280;59836;52.132;5.442;2023-04-04T01:44:40;103117.41;;;2.00;75.10
71966;BME280;59836;52.132;5.442;2023-04-04T01:47:07;103114.88;;;1.98;74.53
71966;BME280;59836;52.132;5.442;2023-04-04T01:49:36;103120.09;;;2.00;74.87
71966;BME280;59836;52.132;5.442;2023-04-04T01:52:03;103110.38;;;1.99;74.48
71966;BME280;59836;52.132;5.442;2023-04-04T01:54:32;103115.19;;;1.95;74.72
71966;BME280;59836;52.132;5.442;2023-04-04T01:57:01;103113.50;;;1.94;74.79
71966;BME280;59836;52.132;5.442;2023-04-04T01:59:27;103113.81;;;1.91;75.13
71966;BME280;59836;52.132;5.442;2023-04-04T02:01:54;103113.31;;;1.87;74.96
71966;BME280;59836;52.132;5.442;2023-04-04T02:04:20;103112.75;;;1.84;75.53
71966;BME280;59836;52.132;5.442;2023-04-04T02:06:47;103116.44;;;1.83;75.59
71966;BME280;59836;52.132;5.442;2023-04-04T02:09:13;103104.34;;;1.79;75.92
71966;BME280;59836;52.132;5.442;2023-04-04T02:11:40;103116.34;;;1.74;76.08
71966;BME280;59836;52.132;5.442;2023-04-04T02:14:06;103114.84;;;1.72;76.38
71966;BME280;59836;52.132;5.442;2023-04-04T02:16:33;103114.16;;;1.70;76.16
71966;BME280;59836;52.132;5.442;2023-04-04T02:18:59;103120.63;;;1.67;75.86
71966;BME280;59836;52.132;5.442;2023-04-04T02:21:26;103124.47;;;1.65;75.86
71966;BME280;59836;52.132;5.442;2023-04-04T02:23:53;103131.63;;;1.64;76.15
71966;BME280;59836;52.132;5.442;2023-04-04T02:26:19;103129.25;;;1.61;76.00
71966;BME280;59836;52.132;5.442;2023-04-04T02:28:46;103134.63;;;1.61;76.29
71966;BME280;59836;52.132;5.442;2023-04-04T02:31:13;103127.28;;;1.63;76.05
71966;BME280;59836;52.132;5.442;2023-04-04T02:33:39;103125.06;;;1.58;76.14
71966;BME280;59836;52.132;5.442;2023-04-04T02:36:05;103127.06;;;1.56;76.51
71966;BME280;59836;52.132;5.442;2023-04-04T02:38:32;103119.22;;;1.55;76.55
71966;BME280;59836;52.132;5.442;2023-04-04T02:40:59;103122.03;;;1.53;76.57
71966;BME280;59836;52.132;5.442;2023-04-04T02:43:25;103111.78;;;1.49;76.75
71966;BME280;59836;52.132;5.442;2023-04-04T02:45:52;103114.47;;;1.49;76.90
71966;BME280;59836;52.132;5.442;2023-04-04T02:48:18;103101.53;;;1.44;77.18
71966;BME280;59836;52.132;5.442;2023-04-04T02:50:45;103103.22;;;1.45;77.17
71966;BME280;59836;52.132;5.442;2023-04-04T02:53:13;103096.34;;;1.42;77.20
71966;BME280;59836;52.132;5.442;2023-04-04T02:55:39;103102.38;;;1.44;76.94
71966;BME280;59836;52.132;5.442;2023-04-04T02:58:06;103096.34;;;1.42;77.29
71966;BME280;59836;52.132;5.442;2023-04-04T03:00:32;103093.69;;;1.42;76.82
71966;BME280;59836;52.132;5.442;2023-04-04T03:02:59;103093.69;;;1.42;77.43
71966;BME280;59836;52.132;5.442;2023-04-04T03:05:26;103092.69;;;1.43;77.28
71966;BME280;59836;52.132;5.442;2023-04-04T03:07:54;103089.75;;;1.37;77.50
71966;BME280;59836;52.132;5.442;2023-04-04T03:10:24;103090.94;;;1.34;77.51
71966;BME280;59836;52.132;5.442;2023-04-04T03:12:51;103090.38;;;1.30;77.82
71966;BME280;59836;52.132;5.442;2023-04-04T03:15:17;103106.56;;;1.29;77.72
71966;BME280;59836;52.132;5.442;2023-04-04T03:17:44;103105.88;;;1.27;78.13
71966;BME280;59836;52.132;5.442;2023-04-04T03:20:12;103103.03;;;1.28;78.07
71966;BME280;59836;52.132;5.442;2023-04-04T03:22:38;103096.88;;;1.28;78.06
71966;BME280;59836;52.132;5.442;2023-04-04T03:25:05;103095.19;;;1.27;77.64
71966;BME280;59836;52.132;5.442;2023-04-04T03:27:32;103085.31;;;1.27;77.78
71966;BME280;59836;52.132;5.442;2023-04-04T03:29:58;103089.84;;;1.27;77.79
71966;BME280;59836;52.132;5.442;2023-04-04T03:32:25;103095.19;;;1.27;77.88
71966;BME280;59836;52.132;5.442;2023-04-04T03:34:52;103093.50;;;1.26;78.16
71966;BME280;59836;52.132;5.442;2023-04-04T03:37:18;103087.78;;;1.21;78.14
71966;BME280;59836;52.132;5.442;2023-04-04T03:39:44;103089.06;;;1.16;78.44
71966;BME280;59836;52.132;5.442;2023-04-04T03:42:11;103077.00;;;1.12;78.77
71966;BME280;59836;52.132;5.442;2023-04-04T03:44:41;103080.66;;;1.11;78.70
71966;BME280;59836;52.132;5.442;2023-04-04T03:47:07;103080.97;;;1.08;78.83
71966;BME280;59836;52.132;5.442;2023-04-04T03:49:34;103079.97;;;1.09;79.01
71966;BME280;59836;52.132;5.442;2023-04-04T03:52:01;103084.16;;;1.12;78.37
71966;BME280;59836;52.132;5.442;2023-04-04T03:54:30;103078.13;;;1.10;78.38
71966;BME280;59836;52.132;5.442;2023-04-04T03:56:56;103077.59;;;1.06;78.65
71966;BME280;59836;52.132;5.442;2023-04-04T03:59:23;103081.78;;;1.09;78.65
71966;BME280;59836;52.132;5.442;2023-04-04T04:01:50;103074.47;;;1.11;78.60
71966;BME280;59836;52.132;5.442;2023-04-04T04:04:17;103084.31;;;1.10;78.62
71966;BME280;59836;52.132;5.442;2023-04-04T04:06:43;103094.47;;;1.07;78.22
71966;BME280;59836;52.132;5.442;2023-04-04T04:09:10;103087.59;;;1.04;78.59
71966;BME280;59836;52.132;5.442;2023-04-04T04:11:37;103089.56;;;1.02;78.74
71966;BME280;59836;52.132;5.442;2023-04-04T04:14:03;103092.53;;;0.99;78.95
71966;BME280;59836;52.132;5.442;2023-04-04T04:16:30;103094.53;;;0.97;78.92
71966;BME280;59836;52.132;5.442;2023-04-04T04:18:58;103099.19;;;0.95;79.23
71966;BME280;59836;52.132;5.442;2023-04-04T04:21:24;103090.47;;;0.93;78.93
71966;BME280;59836;52.132;5.442;2023-04-04T04:23:51;103087.09;;;0.91;79.02
71966;BME280;59836;52.132;5.442;2023-04-04T04:26:17;103102.31;;;0.90;79.28
71966;BME280;59836;52.132;5.442;2023-04-04T04:28:44;103096.28;;;0.88;79.18
71966;BME280;59836;52.132;5.442;2023-04-04T04:31:11;103093.91;;;0.85;79.07
71966;BME280;59836;52.132;5.442;2023-04-04T04:33:37;103092.34;;;0.82;79.44
71966;BME280;59836;52.132;5.442;2023-04-04T04:36:05;103089.69;;;0.82;79.80
71966;BME280;59836;52.132;5.442;2023-04-04T04:38:32;103096.00;;;0.81;79.46
71966;BME280;59836;52.132;5.442;2023-04-04T04:40:59;103094.31;;;0.80;79.53
71966;BME280;59836;52.132;5.442;2023-04-04T04:43:25;103089.84;;;0.81;79.67
71966;BME280;59836;52.132;5.442;2023-04-04T04:45:52;103088.28;;;0.78;79.67
71966;BME280;59836;52.132;5.442;2023-04-04T04:48:19;103087.59;;;0.76;79.93
71966;BME280;59836;52.132;5.442;2023-04-04T04:50:46;103093.09;;;0.75;79.49
71966;BME280;59836;52.132;5.442;2023-04-04T04:53:13;103093.22;;;0.73;79.95
71966;BME280;59836;52.132;5.442;2023-04-04T04:55:40;103094.91;;;0.74;79.78
71966;BME280;59836;52.132;5.442;2023-04-04T04:58:08;103097.75;;;0.72;79.95
71966;BME280;59836;52.132;5.442;2023-04-04T05:00:36;103100.25;;;0.74;79.90
71966;BME280;59836;52.132;5.442;2023-04-04T05:03:03;103106.16;;;0.78;79.88
71966;BME280;59836;52.132;5.442;2023-04-04T05:05:33;103102.78;;;0.76;80.20
71966;BME280;59836;52.132;5.442;2023-04-04T05:08:00;103105.31;;;0.77;79.67
71966;BME280;59836;52.132;5.442;2023-04-04T05:10:29;103111.94;;;0.73;80.20
71966;BME280;59836;52.132;5.442;2023-04-04T05:12:56;103113.91;;;0.71;80.00
71966;BME280;59836;52.132;5.442;2023-04-04T05:15:22;103105.91;;;0.71;80.13
71966;BME280;59836;52.132;5.442;2023-04-04T05:17:51;103108.44;;;0.72;80.57
71966;BME280;59836;52.132;5.442;2023-04-04T05:20:17;103106.75;;;0.71;80.53
71966;BME280;59836;52.132;5.442;2023-04-04T05:22:44;103104.06;;;0.71;80.81
71966;BME280;59836;52.132;5.442;2023-04-04T05:25:11;103109.56;;;0.70;80.75
71966;BME280;59836;52.132;5.442;2023-04-04T05:27:39;103111.22;;;0.71;80.77
71966;BME280;59836;52.132;5.442;2023-04-04T05:30:06;103114.88;;;0.70;81.01
71966;BME280;59836;52.132;5.442;2023-04-04T05:32:33;103112.91;;;0.72;80.94
71966;BME280;59836;52.132;5.442;2023-04-04T05:35:00;103106.59;;;0.73;80.93
71966;BME280;59836;52.132;5.442;2023-04-04T05:37:26;103113.78;;;0.72;81.09
71966;BME280;59836;52.132;5.442;2023-04-04T05:39:53;103104.78;;;0.73;81.12
71966;BME280;59836;52.132;5.442;2023-04-04T05:42:20;103113.63;;;0.74;80.66
71966;BME280;59836;52.132;5.442;2023-04-04T05:44:47;103111.63;;;0.76;80.98
71966;BME280;59836;52.132;5.442;2023-04-04T05:47:13;103103.63;;;0.76;81.03
71966;BME280;59836;52.132;5.442;2023-04-04T05:49:40;103102.63;;;0.77;81.11
71966;BME280;59836;52.132;5.442;2023-04-04T05:52:06;103103.03;;;0.82;81.17
71966;BME280;59836;52.132;5.442;2023-04-04T05:54:33;103100.66;;;0.79;80.95
71966;BME280;59836;52.132;5.442;2023-04-04T05:56:59;103110.34;;;0.80;81.36
71966;BME280;59836;52.132;5.442;2023-04-04T05:59:25;103116.25;;;0.84;81.48
71966;BME280;59836;52.132;5.442;2023-04-04T06:01:52;103115.09;;;0.86;81.09
71966;BME280;59836;52.132;5.442;2023-04-04T06:04:18;103114.97;;;0.88;81.12
71966;BME280;59836;52.132;5.442;2023-04-04T06:06:45;103110.84;;;0.94;81.05
71966;BME280;59836;52.132;5.442;2023-04-04T06:09:11;103110.56;;;0.97;81.48
71966;BME280;59836;52.132;5.442;2023-04-04T06:11:38;103113.31;;;1.05;81.39
71966;BME280;59836;52.132;5.442;2023-04-04T06:14:04;103118.38;;;1.08;81.34
71966;BME280;59836;52.132;5.442;2023-04-04T06:16:31;103117.91;;;1.13;81.41
71966;BME280;59836;52.132;5.442;2023-04-04T06:18:57;103118.16;;;1.20;81.28
71966;BME280;59836;52.132;5.442;2023-04-04T06:21:24;103116.59;;;1.27;81.16
71966;BME280;59836;52.132;5.442;2023-04-04T06:23:50;103115.97;;;1.33;81.17
71966;BME280;59836;52.132;5.442;2023-04-04T06:26:17;103110.84;;;1.40;80.87
71966;BME280;59836;52.132;5.442;2023-04-04T06:28:50;103099.72;;;1.44;80.92
71966;BME280;59836;52.132;5.442;2023-04-04T06:31:17;103098.41;;;1.49;81.02
71966;BME280;59836;52.132;5.442;2023-04-04T06:33:43;103094.44;;;1.53;80.88
71966;BME280;59836;52.132;5.442;2023-04-04T06:36:10;103104.53;;;1.59;80.74
71966;BME280;59836;52.132;5.442;2023-04-04T06:38:36;103098.53;;;1.65;80.55
71966;BME280;59836;52.132;5.442;2023-04-04T06:41:03;103110.00;;;1.75;80.52
71966;BME280;59836;52.132;5.442;2023-04-04T06:43:29;103118.97;;;1.84;79.73
71966;BME280;59836;52.132;5.442;2023-04-04T06:45:56;103118.84;;;1.94;79.89
71966;BME280;59836;52.132;5.442;2023-04-04T06:48:22;103120.59;;;2.03;79.66
71966;BME280;59836;52.132;5.442;2023-04-04T06:50:49;103117.00;;;2.13;78.39
71966;BME280;59836;52.132;5.442;2023-04-04T06:53:15;103129.13;;;2.25;77.56
71966;BME280;59836;52.132;5.442;2023-04-04T06:55:42;103134.53;;;2.33;77.69
71966;BME280;59836;52.132;5.442;2023-04-04T06:58:08;103125.03;;;2.39;77.47
71966;BME280;59836;52.132;5.442;2023-04-04T07:00:35;103121.22;;;2.42;77.05
71966;BME280;59836;52.132;5.442;2023-04-04T07:03:02;103122.72;;;2.44;76.45
71966;BME280;59836;52.132;5.442;2023-04-04T07:05:29;103126.75;;;2.48;76.55
71966;BME280;59836;52.132;5.442;2023-04-04T07:07:57;103125.31;;;2.54;75.55
71966;BME280;59836;52.132;5.442;2023-04-04T07:10:24;103113.41;;;2.57;75.76
71966;BME280;59836;52.132;5.442;2023-04-04T07:12:51;103116.31;;;2.63;75.42
71966;BME280;59836;52.132;5.442;2023-04-04T07:15:17;103116.19;;;2.73;74.64
71966;BME280;59836;52.132;5.442;2023-04-04T07:17:44;103121.56;;;2.82;75.07
71966;BME280;59836;52.132;5.442;2023-04-04T07:20:10;103121.44;;;2.91;74.78
71966;BME280;59836;52.132;5.442;2023-04-04T07:22:38;103121.47;;;3.00;74.04
71966;BME280;59836;52.132;5.442;2023-04-04T07:25:06;103119.81;;;3.07;74.12
71966;BME280;59836;52.132;5.442;2023-04-04T07:27:32;103121.38;;;3.18;73.44
71966;BME280;59836;52.132;5.442;2023-04-04T07:29:59;103126.25;;;3.31;73.58
71966;BME280;59836;52.132;5.442;2023-04-04T07:32:25;103116.91;;;3.43;73.56
71966;BME280;59836;52.132;5.442;2023-04-04T07:34:52;103120.94;;;3.56;73.29
71966;BME280;59836;52.132;5.442;2023-04-04T07:37:18;103121.94;;;3.71;72.36
71966;BME280;59836;52.132;5.442;2023-04-04T07:39:45;103112.56;;;3.83;71.39
71966;BME280;59836;52.132;5.442;2023-04-04T07:42:11;103115.56;;;3.97;71.59
71966;BME280;59836;52.132;5.442;2023-04-04T07:44:38;103118.78;;;4.09;70.28
71966;BME280;59836;52.132;5.442;2023-04-04T07:47:04;103125.97;;;4.17;69.36
71966;BME280;59836;52.132;5.442;2023-04-04T07:49:35;103117.75;;;4.18;69.57
71966;BME280;59836;52.132;5.442;2023-04-04T07:52:02;103126.50;;;4.20;69.56
71966;BME280;59836;52.132;5.442;2023-04-04T07:54:29;103129.97;;;4.29;68.75
71966;BME280;59836;52.132;5.442;2023-04-04T07:56:56;103118.38;;;4.37;69.06
71966;BME280;59836;52.132;5.442;2023-04-04T07:59:22;103112.50;;;4.41;68.75
71966;BME280;59836;52.132;5.442;2023-04-04T08:02:04;103113.16;;;4.52;69.10
71966;BME280;59836;52.132;5.442;2023-04-04T08:04:31;103104.38;;;4.66;69.26
71966;BME280;59836;52.132;5.442;2023-04-04T08:06:58;103099.75;;;4.83;69.53
71966;BME280;59836;52.132;5.442;2023-04-04T08:09:24;103111.63;;;4.97;68.66
71966;BME280;59836;52.132;5.442;2023-04-04T08:11:51;103101.47;;;5.08;68.13
71966;BME280;59836;52.132;5.442;2023-04-04T08:14:18;103101.75;;;5.21;67.25
71966;BME280;59836;52.132;5.442;2023-04-04T08:16:44;103099.00;;;5.29;66.69
71966;BME280;59836;52.132;5.442;2023-04-04T08:19:11;103097.53;;;5.50;65.86
71966;BME280;59836;52.132;5.442;2023-04-04T08:21:38;103095.00;;;5.72;65.56
71966;BME280;59836;52.132;5.442;2023-04-04T08:24:04;103096.44;;;5.98;65.26
71966;BME280;59836;52.132;5.442;2023-04-04T08:26:31;103092.16;;;6.12;64.32
71966;BME280;59836;52.132;5.442;2023-04-04T08:28:58;103092.00;;;6.28;63.05
71966;BME280;59836;52.132;5.442;2023-04-04T08:31:24;103085.19;;;6.47;61.32
71966;BME280;59836;52.132;5.442;2023-04-04T08:33:51;103086.56;;;6.58;61.03
71966;BME280;59836;52.132;5.442;2023-04-04T08:36:18;103085.19;;;6.77;60.71
71966;BME280;59836;52.132;5.442;2023-04-04T08:38:44;103080.34;;;6.88;60.30
71966;BME280;59836;52.132;5.442;2023-04-04T08:41:11;103072.38;;;7.01;58.36
71966;BME280;59836;52.132;5.442;2023-04-04T08:43:40;103072.00;;;7.04;56.97
71966;BME280;59836;52.132;5.442;2023-04-04T08:46:10;103080.63;;;7.15;57.19
71966;BME280;59836;52.132;5.442;2023-04-04T08:48:40;103082.44;;;7.29;56.10
71966;BME280;59836;52.132;5.442;2023-04-04T08:51:11;103075.13;;;7.45;57.04
71966;BME280;59836;52.132;5.442;2023-04-04T08:53:39;103076.91;;;7.59;54.56
71966;BME280;59836;52.132;5.442;2023-04-04T08:56:05;103079.91;;;7.71;55.37
71966;BME280;59836;52.132;5.442;2023-04-04T08:58:32;103076.19;;;7.72;55.46
71966;BME280;59836;52.132;5.442;2023-04-04T09:00:59;103074.97;;;7.75;55.20
71966;BME280;59836;52.132;5.442;2023-04-04T09:03:30;103073.16;;;7.82;54.72
71966;BME280;59836;52.132;5.442;2023-04-04T09:06:03;103068.25;;;7.92;54.46
71966;BME280;59836;52.132;5.442;2023-04-04T09:08:30;103073.09;;;8.04;52.37
71966;BME280;59836;52.132;5.442;2023-04-04T09:11:06;103075.63;;;8.12;52.94
71966;BME280;59836;52.132;5.442;2023-04-04T09:13:33;103076.91;;;8.16;51.63
71966;BME280;59836;52.132;5.442;2023-04-04T09:16:23;103070.28;;;8.19;52.28
71966;BME280;59836;52.132;5.442;2023-04-04T09:18:55;103075.72;;;8.25;51.73
71966;BME280;59836;52.132;5.442;2023-04-04T09:21:22;103079.91;;;8.28;50.78
71966;BME280;59836;52.132;5.442;2023-04-04T09:24:06;103073.25;;;8.24;51.82
71966;BME280;59836;52.132;5.442;2023-04-04T09:26:52;103071.59;;;8.30;53.04
71966;BME280;59836;52.132;5.442;2023-04-04T09:29:21;103072.28;;;8.38;52.42
71966;BME280;59836;52.132;5.442;2023-04-04T09:31:49;103073.34;;;8.44;52.26
71966;BME280;59836;52.132;5.442;2023-04-04T09:34:23;103065.09;;;8.52;52.39
71966;BME280;59836;52.132;5.442;2023-04-04T09:36:50;103064.94;;;8.61;52.96
71966;BME280;59836;52.132;5.442;2023-04-04T09:39:19;103065.19;;;8.73;51.83
71966;BME280;59836;52.132;5.442;2023-04-04T09:41:49;103065.44;;;8.84;51.35
71966;BME280;59836;52.132;5.442;2023-04-04T09:44:17;103071.66;;;8.78;50.12
71966;BME280;59836;52.132;5.442;2023-04-04T09:46:43;103059.59;;;8.81;49.99
71966;BME280;59836;52.132;5.442;2023-04-04T09:49:17;103047.94;;;8.80;49.07
71966;BME280;59836;52.132;5.442;2023-04-04T09:51:48;103053.78;;;8.84;50.16
71966;BME280;59836;52.132;5.442;2023-04-04T09:54:22;103053.59;;;8.85;49.87
71966;BME280;59836;52.132;5.442;2023-04-04T09:56:55;103044.03;;;8.90;49.24
71966;BME280;59836;52.132;5.442;2023-04-04T09:59:22;103053.63;;;8.99;48.89
71966;BME280;59836;52.132;5.442;2023-04-04T10:01:49;103045.09;;;9.09;48.44
71966;BME280;59836;52.132;5.442;2023-04-04T10:04:18;103045.97;;;9.16;48.19
71966;BME280;59836;52.132;5.442;2023-04-04T10:06:45;103048.25;;;9.19;48.12
71966;BME280;59836;52.132;5.442;2023-04-04T10:09:14;103042.44;;;9.29;47.76
71966;BME280;59836;52.132;5.442;2023-04-04T10:11:41;103050.13;;;9.32;47.19
71966;BME280;59836;52.132;5.442;2023-04-04T10:14:08;103037.44;;;9.33;46.71
71966;BME280;59836;52.132;5.442;2023-04-04T10:16:34;103031.63;;;9.36;46.82
71966;BME280;59836;52.132;5.442;2023-04-04T10:19:04;103039.53;;;9.44;46.25
71966;BME280;59836;52.132;5.442;2023-04-04T10:21:34;103035.34;;;9.41;45.21
71966;BME280;59836;52.132;5.442;2023-04-04T10:24:02;103025.78;;;9.45;45.23
71966;BME280;59836;52.132;5.442;2023-04-04T10:26:34;103022.88;;;9.47;45.79
71966;BME280;59836;52.132;5.442;2023-04-04T10:29:02;103018.09;;;9.49;45.85
71966;BME280;59836;52.132;5.442;2023-04-04T10:31:32;103020.78;;;9.56;45.52
71966;BME280;59836;52.132;5.442;2023-04-04T10:36:57;103023.50;;;9.69;45.56
71966;BME280;59836;52.132;5.442;2023-04-04T10:39:36;103002.84;;;9.82;46.08
71966;BME280;59836;52.132;5.442;2023-04-04T10:42:04;103008.25;;;9.95;45.81
71966;BME280;59836;52.132;5.442;2023-04-04T10:44:38;103011.78;;;10.02;44.98
71966;BME280;59836;52.132;5.442;2023-04-04T10:47:19;103012.38;;;10.04;45.58
71966;BME280;59836;52.132;5.442;2023-04-04T10:49:48;103014.06;;;10.06;44.89
71966;BME280;59836;52.132;5.442;2023-04-04T10:52:19;103001.97;;;9.95;45.16
71966;BME280;59836;52.132;5.442;2023-04-04T10:54:48;102997.81;;;9.92;45.30
71966;BME280;59836;52.132;5.442;2023-04-04T10:57:16;102993.41;;;10.04;45.35
71966;BME280;59836;52.132;5.442;2023-04-04T10:59:55;102999.63;;;10.12;44.81
71966;BME280;59836;52.132;5.442;2023-04-04T11:02:52;102991.75;;;10.03;44.61
71966;BME280;59836;52.132;5.442;2023-04-04T11:05:24;102984.06;;;9.87;43.43
71966;BME280;59836;52.132;5.442;2023-04-04T11:10:34;102993.22;;;9.99;43.98
71966;BME280;59836;52.132;5.442;2023-04-04T11:13:06;102983.19;;;10.07;43.56
71966;BME280;59836;52.132;5.442;2023-04-04T11:15:57;102981.03;;;10.22;43.72
71966;BME280;59836;52.132;5.442;2023-04-04T11:18:44;102978.69;;;10.32;43.83
71966;BME280;59836;52.132;5.442;2023-04-04T11:21:19;102967.22;;;10.37;43.67
71966;BME280;59836;52.132;5.442;2023-04-04T11:28:51;102960.72;;;10.45;42.25
71966;BME280;59836;52.132;5.442;2023-04-04T11:34:11;102963.19;;;10.53;43.00
71966;BME280;59836;52.132;5.442;2023-04-04T11:39:07;102954.56;;;10.70;43.70
71966;BME280;59836;52.132;5.442;2023-04-04T11:42:05;102956.75;;;10.86;44.02
71966;BME280;59836;52.132;5.442;2023-04-04T11:44:40;102959.84;;;10.90;42.76
71966;BME280;59836;52.132;5.442;2023-04-04T11:49:42;102951.53;;;10.85;42.50
71966;BME280;59836;52.132;5.442;2023-04-04T11:52:11;102945.44;;;10.89;41.97
71966;BME280;59836;52.132;5.442;2023-04-04T11:54:40;102937.25;;;10.96;42.65
71966;BME280;59836;52.132;5.442;2023-04-04T11:57:10;102944.41;;;10.90;41.52
71966;BME280;59836;52.132;5.442;2023-04-04T11:59:50;102931.91;;;10.83;41.94
71966;BME280;59836;52.132;5.442;2023-04-04T12:02:22;102930.03;;;10.83;41.00
71966;BME280;59836;52.132;5.442;2023-04-04T12:04:52;102936.88;;;10.92;41.45
71966;BME280;59836;52.132;5.442;2023-04-04T12:07:19;102938.38;;;11.14;42.55
71966;BME280;59836;52.132;5.442;2023-04-04T12:09:46;102924.88;;;11.26;41.81
71966;BME280;59836;52.132;5.442;2023-04-04T12:12:14;102922.13;;;11.32;41.56
71966;BME280;59836;52.132;5.442;2023-04-04T12:14:42;102926.53;;;11.27;40.20
71966;BME280;59836;52.132;5.442;2023-04-04T12:17:09;102918.56;;;11.32;41.49
71966;BME280;59836;52.132;5.442;2023-04-04T12:19:37;102915.47;;;11.28;40.63
71966;BME280;59836;52.132;5.442;2023-04-04T12:22:04;102915.22;;;11.30;41.28
71966;BME280;59836;52.132;5.442;2023-04-04T12:24:31;102909.16;;;11.34;41.95
71966;BME280;59836;52.132;5.442;2023-04-04T12:26:58;102911.78;;;11.41;40.74
71966;BME280;59836;52.132;5.442;2023-04-04T12:29:25;102907.13;;;11.48;42.13
71966;BME280;59836;52.132;5.442;2023-04-04T12:31:53;102890.16;;;11.53;40.58
71966;BME280;59836;52.132;5.442;2023-04-04T12:34:22;102889.00;;;11.42;41.46
71966;BME280;59836;52.132;5.442;2023-04-04T12:36:54;102896.25;;;11.48;40.91
71966;BME280;59836;52.132;5.442;2023-04-04T12:39:21;102895.63;;;11.46;41.98
71966;BME280;59836;52.132;5.442;2023-04-04T12:41:52;102898.75;;;11.50;41.12
71966;BME280;59836;52.132;5.442;2023-04-04T12:44:37;102881.00;;;11.47;41.60
71966;BME280;59836;52.132;5.442;2023-04-04T12:47:08;102884.47;;;11.55;41.19
71966;BME280;59836;52.132;5.442;2023-04-04T12:49:42;102880.69;;;11.56;40.92
71966;BME280;59836;52.132;5.442;2023-04-04T12:52:17;102872.72;;;11.61;41.74
71966;BME280;59836;52.132;5.442;2023-04-04T12:54:46;102880.41;;;11.64;41.11
71966;BME280;59836;52.132;5.442;2023-04-04T12:57:23;102868.78;;;11.57;40.77
71966;BME280;59836;52.132;5.442;2023-04-04T12:59:52;102861.84;;;11.61;40.58
71966;BME280;59836;52.132;5.442;2023-04-04T13:02:21;102864.25;;;11.69;40.04
71966;BME280;59836;52.132;5.442;2023-04-04T13:04:52;102854.50;;;11.80;41.38
71966;BME280;59836;52.132;5.442;2023-04-04T13:07:33;102858.94;;;11.93;41.97
71966;BME280;59836;52.132;5.442;2023-04-04T13:10:02;102853.44;;;12.00;41.03
71966;BME280;59836;52.132;5.442;2023-04-04T13:12:58;102848.53;;;11.90;41.52
71966;BME280;59836;52.132;5.442;2023-04-04T13:15:48;102848.88;;;11.93;41.91
71966;BME280;59836;52.132;5.442;2023-04-04T13:18:18;102839.47;;;11.96;41.22
71966;BME280;59836;52.132;5.442;2023-04-04T13:20:47;102841.88;;;11.86;41.53
71966;BME280;59836;52.132;5.442;2023-04-04T13:23:14;102834.66;;;11.79;41.93
71966;BME280;59836;52.132;5.442;2023-04-04T13:25:41;102835.31;;;11.75;41.38